createdAt,value
2022-08-30T00:07:06.733Z,63.23
2022-08-30T00:17:08.203Z,63.63
2022-08-30T00:27:09.668Z,64.17
2022-08-30T00:37:11.193Z,64.19
2022-08-30T00:47:12.977Z,64.63
2022-08-30T00:57:15.476Z,64.68
2022-08-30T01:07:18.119Z,65.38
2022-08-30T01:17:21.977Z,66.08
2022-08-30T01:27:26.942Z,65.66
2022-08-30T01:37:31.490Z,65.07
2022-08-30T01:47:33.231Z,66.66
2022-08-30T01:57:34.768Z,66.73
2022-08-30T02:07:36.670Z,66.99
2022-08-30T02:17:38.308Z,67.37
2022-08-30T02:27:39.817Z,67.39
2022-08-30T02:37:44.347Z,67.40
2022-08-30T02:47:47.113Z,67.88
2022-08-30T02:57:48.925Z,68.08
2022-08-30T03:07:50.597Z,67.41
2022-08-30T03:17:53.721Z,67.39
2022-08-30T03:27:55.225Z,68.43
2022-08-30T03:37:57.048Z,68.22
2022-08-30T03:47:59.092Z,68.30
2022-08-30T03:58:00.635Z,68.49
2022-08-30T04:08:02.337Z,68.81
2022-08-30T04:18:03.839Z,68.96
2022-08-30T04:28:05.826Z,68.52
2022-08-30T04:38:07.646Z,67.89
2022-08-30T04:48:09.157Z,68.35
2022-08-30T04:58:11.761Z,67.73
2022-08-30T05:08:16.948Z,66.89
2022-08-30T05:18:18.507Z,65.56
2022-08-30T05:28:23.108Z,63.46
2022-08-30T05:38:27.054Z,61.20
2022-08-30T05:48:28.818Z,59.84
2022-08-30T05:58:31.298Z,58.90
2022-08-30T06:08:32.803Z,57.72
2022-08-30T06:18:34.276Z,56.04
2022-08-30T06:28:36.046Z,54.15
2022-08-30T06:38:38.562Z,51.97
2022-08-30T06:48:42.219Z,49.98
2022-08-30T06:58:46.306Z,27.40
2022-08-30T07:08:50.537Z,18.90
2022-08-30T07:18:58.765Z,16.38
2022-08-30T07:29:01.836Z,13.66
2022-08-30T07:39:05.253Z,12.49
2022-08-30T07:49:11.263Z,11.74
2022-08-30T07:59:12.958Z,11.10
2022-08-30T08:09:14.428Z,10.62
2022-08-30T08:19:16.099Z,10.92
2022-08-30T08:29:17.561Z,11.21
2022-08-30T08:39:19.517Z,9.91
2022-08-30T08:49:21.230Z,10.75
2022-08-30T08:59:22.927Z,9.98
2022-08-30T09:09:34.332Z,9.57
2022-08-30T09:19:41.808Z,10.05
2022-08-30T09:29:54.138Z,10.02
2022-08-30T09:39:55.732Z,9.79
2022-08-30T09:50:07.719Z,9.67
2022-08-30T10:00:18.444Z,10.39
2022-08-30T10:10:29.096Z,9.59
2022-08-30T10:20:48.956Z,9.73
2022-08-30T10:31:00.136Z,10.55
2022-08-30T10:41:42.968Z,10.72
2022-08-30T10:51:50.737Z,10.20
2022-08-30T11:02:18.546Z,9.76
2022-08-30T11:12:22.748Z,15.69
2022-08-30T11:22:39.084Z,18.31
2022-08-30T11:33:07.991Z,20.52
2022-08-30T11:43:40.126Z,23.20
2022-08-30T11:53:53.576Z,22.64
2022-08-30T12:04:17.767Z,21.16
2022-08-30T12:14:51.816Z,20.27
2022-08-30T12:24:54.602Z,20.03
2022-08-30T12:34:59.436Z,21.13
2022-08-30T12:45:07.177Z,20.82
2022-08-30T12:55:23.542Z,22.41
2022-08-30T13:05:45.781Z,22.74
2022-08-30T13:15:50.026Z,22.33
2022-08-30T13:25:51.927Z,21.82
2022-08-30T13:35:53.449Z,21.32
2022-08-30T13:45:57.505Z,21.26
2022-08-30T13:55:59.990Z,21.47
2022-08-30T14:06:29.387Z,23.97
2022-08-30T14:16:27.123Z,27.05
2022-08-30T14:26:33.703Z,26.95
2022-08-30T14:36:37.789Z,25.60
2022-08-30T14:46:42.338Z,23.26
2022-08-30T14:56:44.291Z,24.25
2022-08-30T15:06:48.157Z,23.33
2022-08-30T15:16:49.959Z,23.60
2022-08-30T15:26:52.419Z,22.55
2022-08-30T15:36:53.912Z,22.30
2022-08-30T15:46:55.713Z,23.32
2022-08-30T15:57:00.288Z,25.43
2022-08-30T16:07:04.783Z,27.11
2022-08-30T16:17:06.424Z,27.61
2022-08-30T16:27:08.772Z,30.70
2022-08-30T16:37:10.419Z,30.90
2022-08-30T16:47:14.267Z,31.31
2022-08-30T16:57:15.861Z,31.92
2022-08-30T17:07:22.407Z,31.83
2022-08-30T17:17:24.234Z,31.96
2022-08-30T17:27:26.241Z,32.30
2022-08-30T17:37:28.005Z,32.54
2022-08-30T17:47:29.481Z,32.73
2022-08-30T17:57:41.753Z,33.48
2022-08-30T18:07:43.238Z,34.64
2022-08-30T18:17:47.567Z,34.68
2022-08-30T18:27:57.268Z,35.04
2022-08-30T18:38:00.438Z,34.91
2022-08-30T18:48:02.102Z,35.53
2022-08-30T18:58:03.979Z,35.96
2022-08-30T19:08:06.752Z,36.35
2022-08-30T19:18:16.649Z,37.00
2022-08-30T19:28:19.505Z,37.20
2022-08-30T19:38:21.382Z,37.91
2022-08-30T19:48:24.339Z,38.11
2022-08-30T19:58:33.537Z,39.24
2022-08-30T20:08:35.071Z,39.71
2022-08-30T20:18:38.092Z,40.63
2022-08-30T20:28:40.771Z,42.30
2022-08-30T20:38:44.241Z,42.72
2022-08-30T20:48:46.678Z,44.29
2022-08-30T20:58:50.689Z,45.82
2022-08-30T21:08:52.603Z,47.20
2022-08-30T21:18:54.277Z,47.94
2022-08-30T21:28:55.877Z,48.38
2022-08-30T21:39:00.894Z,48.55
2022-08-30T21:49:05.927Z,49.54
2022-08-30T21:59:08.971Z,49.64
2022-08-30T22:09:16.181Z,50.41
2022-08-30T22:19:22.878Z,50.94
2022-08-30T22:29:24.872Z,51.31
2022-08-30T22:39:26.977Z,51.72
2022-08-30T22:49:28.596Z,51.63
2022-08-30T22:59:32.350Z,51.87
2022-08-30T23:09:34.052Z,52.30
2022-08-30T23:19:35.552Z,52.26
2022-08-30T23:29:55.725Z,52.86
2022-08-30T23:40:16.049Z,53.00
2022-08-30T23:50:36.317Z,53.53
